Time;durP1;ratioP1;P1;durP2;ratioP2;P2;SDS_P1;SDS_P2;PMS_P1;PMS_P2;Temp;Humidity;BMP_temperature;BMP_pressure;BME280_temperature;BME280_humidity;BME280_pressure;Samples;Min_cycle;Max_cycle;Signal;HPM_P1;HPM_P2
2022/04/10 00:00:26;;;;;;;4.13;2.83;;;;;;;14.16;72.93;98179.03;5072621;28;20200;-61
2022/04/10 00:02:53;;;;;;;2.93;2.70;;;;;;;14.01;71.11;98167.13;5072435;28;20200;-60
2022/04/10 00:05:21;;;;;;;4.67;3.07;;;;;;;14.06;70.21;98175.38;5071819;28;20656;-61
2022/04/10 00:07:48;;;;;;;2.53;2.37;;;;;;;13.93;70.00;98172.75;5072774;28;20200;-61
2022/04/10 00:10:15;;;;;;;2.30;2.20;;;;;;;13.80;70.76;98178.78;5072262;28;20283;-61
2022/04/10 00:12:42;;;;;;;2.23;2.13;;;;;;;13.68;70.50;98183.78;5072423;28;20282;-60
2022/04/10 00:15:11;;;;;;;2.33;2.03;;;;;;;13.61;69.80;98184.25;5072444;28;20549;-60
2022/04/10 00:17:38;;;;;;;2.47;2.37;;;;;;;13.64;68.32;98184.88;5072397;28;20760;-61
2022/04/10 00:20:06;;;;;;;2.40;2.20;;;;;;;13.65;69.36;98188.28;5072056;28;20204;-60
2022/04/10 00:22:40;;;;;;;2.23;2.03;;;;;;;13.62;70.06;98173.88;5072246;28;20246;-61
2022/04/10 00:25:08;;;;;;;3.30;2.40;;;;;;;13.58;69.71;98168.97;5071927;28;20196;-61
2022/04/10 00:27:35;;;;;;;2.17;2.07;;;;;;;13.66;69.64;98188.22;5070762;28;20291;-60
2022/04/10 00:30:02;;;;;;;2.20;1.90;;;;;;;13.73;70.08;98188.66;5072305;28;20254;-61
2022/04/10 00:32:29;;;;;;;2.40;2.20;;;;;;;13.68;70.05;98185.53;5070867;28;20291;-60
2022/04/10 00:34:56;;;;;;;2.80;2.07;;;;;;;13.67;70.37;98187.28;5070988;28;20216;-61
2022/04/10 00:37:23;;;;;;;5.37;3.57;;;;;;;13.71;72.10;98187.06;5071721;28;20200;-61
2022/04/10 00:39:51;;;;;;;5.07;3.00;;;;;;;13.73;73.52;98191.22;5072007;28;20200;-61
2022/04/10 00:42:19;;;;;;;3.37;3.07;;;;;;;13.73;75.46;98186.09;5072673;28;20747;-66
2022/04/10 00:44:47;;;;;;;4.03;3.40;;;;;;;13.82;77.69;98197.56;5072836;28;20696;-66
2022/04/10 00:47:14;;;;;;;4.53;3.83;;;;;;;13.83;80.93;98197.44;5072530;28;20200;-66
2022/04/10 00:49:41;;;;;;;4.50;3.30;;;;;;;13.80;82.53;98189.06;5072519;28;20210;-66
2022/04/10 00:52:09;;;;;;;4.97;3.67;;;;;;;13.78;84.12;98188.34;5072534;28;20675;-66
2022/04/10 00:54:36;;;;;;;4.00;3.70;;;;;;;13.75;84.77;98186.81;5072209;28;20307;-67
2022/04/10 00:57:06;;;;;;;6.50;3.73;;;;;;;13.71;86.71;98187.06;5072239;28;20279;-66
2022/04/10 00:59:33;;;;;;;4.33;3.80;;;;;;;13.79;86.66;98190.03;5072197;28;20200;-67
2022/04/10 01:02:00;;;;;;;3.67;3.37;;;;;;;13.76;86.74;98182.50;5072321;28;20200;-66
2022/04/10 01:04:27;;;;;;;3.60;3.40;;;;;;;13.77;88.38;98202.16;5072229;28;20197;-64
2022/04/10 01:06:55;;;;;;;6.10;4.17;;;;;;;13.75;88.31;98189.38;5072183;28;20200;-67
2022/04/10 01:09:21;;;;;;;4.27;3.97;;;;;;;13.85;88.17;98184.47;5072243;28;20318;-66
2022/04/10 01:11:49;;;;;;;4.43;4.13;;;;;;;13.83;89.85;98200.00;5071992;28;20611;-67
2022/04/10 01:14:18;;;;;;;4.37;3.97;;;;;;;13.64;92.05;98187.47;5072067;28;20220;-66
2022/04/10 01:16:46;;;;;;;4.33;4.13;;;;;;;13.59;92.33;98184.34;5071467;28;20295;-66
2022/04/10 01:19:14;;;;;;;4.53;4.20;;;;;;;13.50;93.82;98195.22;5071143;28;20200;-66
2022/04/10 01:21:44;;;;;;;9.13;4.53;;;;;;;13.27;95.58;98171.78;5071501;28;20722;-66
2022/04/10 01:24:12;;;;;;;5.40;3.87;;;;;;;13.42;95.29;98191.44;5071659;28;20231;-66
2022/04/10 01:26:40;;;;;;;4.90;4.50;;;;;;;13.37;95.61;98186.59;5071843;28;20199;-66
2022/04/10 01:29:08;;;;;;;5.07;4.13;;;;;;;13.44;95.58;98185.28;5070892;28;20317;-66
2022/04/10 01:31:38;;;;;;;4.77;4.23;;;;;;;13.50;95.07;98190.06;5072052;28;20663;-66
2022/04/10 01:34:07;;;;;;;5.80;5.30;;;;;;;13.42;95.49;98188.88;5071549;28;20687;-66
2022/04/10 01:36:36;;;;;;;6.10;5.10;;;;;;;13.29;96.06;98170.78;5071655;28;20200;-66
2022/04/10 01:39:05;;;;;;;4.13;3.87;;;;;;;13.16;97.25;98180.16;5070924;28;20218;-66
2022/04/10 01:41:34;;;;;;;4.77;4.47;;;;;;;13.17;97.63;98175.84;5071121;28;20648;-66
2022/04/10 01:44:02;;;;;;;4.30;4.10;;;;;;;13.09;97.86;98153.13;5070566;28;20196;-67
2022/04/10 01:46:30;;;;;;;6.70;4.43;;;;;;;13.10;98.70;98170.22;5070639;28;20202;-66
2022/04/10 01:48:58;;;;;;;5.17;4.73;;;;;;;13.02;98.97;98162.13;5070169;28;20204;-66
2022/04/10 01:51:25;;;;;;;4.57;4.23;;;;;;;12.88;100.00;98164.66;5070680;28;20242;-66
2022/04/10 01:53:53;;;;;;;5.37;4.40;;;;;;;12.74;100.00;98172.34;5071028;28;20591;-67
2022/04/10 01:56:21;;;;;;;4.80;4.40;;;;;;;12.58;100.00;98141.56;5071524;28;20207;-66
2022/04/10 01:58:52;;;;;;;6.10;5.00;;;;;;;12.67;100.00;98171.06;5071241;28;20207;-66
2022/04/10 02:01:20;;;;;;;5.23;4.67;;;;;;;12.72;100.00;98148.50;5071394;28;20203;-66
2022/04/10 02:03:47;;;;;;;5.23;4.70;;;;;;;12.66;100.00;98154.00;5068881;28;20612;-66
2022/04/10 02:06:16;;;;;;;6.57;5.47;;;;;;;12.77;100.00;98172.19;5071343;28;20198;-66
2022/04/10 02:08:43;;;;;;;7.23;5.63;;;;;;;12.90;100.00;98173.13;5071382;28;20656;-67
2022/04/10 02:11:11;;;;;;;5.30;4.83;;;;;;;12.93;100.00;98172.94;5069893;28;20290;-67
2022/04/10 02:13:39;;;;;;;6.23;4.50;;;;;;;13.05;100.00;98167.09;5071378;28;20227;-66
2022/04/10 02:16:08;;;;;;;4.50;4.17;;;;;;;13.12;100.00;98164.06;5071009;28;20211;-67
2022/04/10 02:18:35;;;;;;;5.10;4.80;;;;;;;13.26;99.71;98170.97;5071237;28;20207;-67
2022/04/10 02:21:05;;;;;;;6.87;5.73;;;;;;;13.33;98.89;98167.09;5071037;28;20291;-66
2022/04/10 02:23:32;;;;;;;5.47;4.03;;;;;;;13.35;98.71;98154.94;5071077;28;20311;-66
2022/04/10 02:25:59;;;;;;;5.40;4.53;;;;;;;13.35;98.53;98149.81;5071023;28;20283;-67
2022/04/10 02:28:26;;;;;;;5.00;4.67;;;;;;;13.42;98.23;98156.25;5072909;28;20199;-66
2022/04/10 02:30:53;;;;;;;4.90;4.50;;;;;;;13.38;98.56;98151.34;5074896;28;20196;-65
2022/04/10 02:33:21;;;;;;;3.77;3.43;;;;;;;13.40;98.92;98158.09;5075036;28;20565;-66
2022/04/10 02:35:48;;;;;;;8.50;3.73;;;;;;;13.37;99.66;98168.56;5075081;28;20203;-66
2022/04/10 02:38:16;;;;;;;4.50;4.20;;;;;;;13.37;99.90;98165.16;5074539;28;20196;-66
2022/04/10 02:40:44;;;;;;;4.70;4.37;;;;;;;13.28;100.00;98166.53;5074806;28;20196;-66
2022/04/10 02:43:13;;;;;;;4.33;4.00;;;;;;;13.24;100.00;98157.38;5074698;28;20192;-66
2022/04/10 02:45:41;;;;;;;4.90;3.97;;;;;;;13.08;100.00;98146.31;5074761;28;20668;-67
2022/04/10 02:48:08;;;;;;;4.40;3.90;;;;;;;13.02;100.00;98151.84;5074544;28;20215;-66
2022/04/10 02:50:36;;;;;;;3.80;3.50;;;;;;;12.91;100.00;98138.78;5074608;28;20287;-66
2022/04/10 02:53:03;;;;;;;4.00;3.73;;;;;;;12.96;100.00;98152.16;5074366;28;20660;-66
2022/04/10 02:55:30;;;;;;;10.87;3.40;;;;;;;12.81;100.00;98132.50;5074391;28;20303;-67
2022/04/10 02:57:57;;;;;;;4.73;3.90;;;;;;;12.82;100.00;98139.31;5074906;28;20729;-66
2022/04/10 03:00:24;;;;;;;5.73;3.70;;;;;;;12.77;100.00;98151.59;5074268;28;20210;-66
2022/04/10 03:02:51;;;;;;;3.93;3.53;;;;;;;12.78;100.00;98148.13;5074518;28;20315;-66
2022/04/10 03:05:18;;;;;;;7.17;4.03;;;;;;;12.70;100.00;98145.19;5074666;28;20279;-66
2022/04/10 03:07:47;;;;;;;4.27;3.17;;;;;;;12.80;100.00;98152.25;5074482;28;20722;-66
2022/04/10 03:10:13;;;;;;;3.70;3.40;;;;;;;12.87;100.00;98157.88;5074158;28;20235;-67
2022/04/10 03:12:40;;;;;;;4.07;3.77;;;;;;;12.86;100.00;98161.38;5074067;28;20200;-66
2022/04/10 03:15:08;;;;;;;4.00;3.67;;;;;;;12.92;100.00;98158.44;5074304;28;20591;-64
2022/04/10 03:17:35;;;;;;;4.70;3.30;;;;;;;12.98;100.00;98150.34;5074374;28;20595;-67
2022/04/10 03:20:02;;;;;;;5.37;3.93;;;;;;;13.02;100.00;98154.41;5074417;28;20283;-66
2022/04/10 03:22:29;;;;;;;4.13;3.50;;;;;;;12.97;100.00;98151.25;5073873;28;20666;-66
2022/04/10 03:25:00;;;;;;;5.07;3.97;;;;;;;13.07;100.00;98154.94;5073934;28;20196;-66
2022/04/10 03:39:51;;;;;;;5.83;3.40;;;;;;;13.18;100.00;98142.31;5129791;27;20573;-66
2022/04/10 03:42:18;;;;;;;6.60;3.70;;;;;;;12.90;100.00;98131.97;5129991;27;20708;-66
2022/04/10 03:44:45;;;;;;;3.90;3.70;;;;;;;12.71;100.00;98134.81;5129724;27;20288;-66
2022/04/10 03:47:11;;;;;;;3.90;3.60;;;;;;;12.56;100.00;98133.97;5129669;27;20202;-66
2022/04/10 03:49:38;;;;;;;4.47;3.97;;;;;;;12.70;100.00;98155.47;5129647;27;20205;-66
2022/04/10 03:52:06;;;;;;;3.93;3.53;;;;;;;12.65;100.00;98158.31;5129688;27;20201;-66
2022/04/10 03:54:33;;;;;;;8.07;4.10;;;;;;;12.65;100.00;98163.44;5129719;27;20740;-66
2022/04/10 03:57:01;;;;;;;4.33;3.77;;;;;;;12.73;100.00;98170.72;5129274;27;20281;-66
2022/04/10 03:59:28;;;;;;;5.00;3.80;;;;;;;12.80;100.00;98187.44;5129789;27;20202;-66
2022/04/10 04:01:55;;;;;;;4.40;3.67;;;;;;;12.89;100.00;98194.63;5129335;27;20198;-66
2022/04/10 04:04:22;;;;;;;7.77;4.47;;;;;;;12.98;100.00;98202.63;5129553;27;20206;-66
2022/04/10 04:06:49;;;;;;;6.47;5.10;;;;;;;12.99;100.00;98190.56;5129399;27;20237;-67
2022/04/10 04:09:16;;;;;;;5.53;4.43;;;;;;;13.14;100.00;98207.72;5129396;27;20296;-67
2022/04/10 04:11:43;;;;;;;4.67;4.30;;;;;;;13.11;100.00;98211.31;5129188;27;20198;-66
2022/04/10 04:14:13;;;;;;;5.00;4.50;;;;;;;13.09;100.00;98220.00;5129542;27;20284;-66
2022/04/10 04:16:40;;;;;;;5.07;4.57;;;;;;;13.05;100.00;98233.97;5129418;27;20206;-67
2022/04/10 04:19:07;;;;;;;6.23;4.47;;;;;;;12.98;100.00;98227.53;5129353;27;20657;-67
2022/04/10 04:21:34;;;;;;;5.37;3.83;;;;;;;13.02;100.00;98240.09;5129159;27;20202;-66
2022/04/10 04:24:01;;;;;;;8.13;4.90;;;;;;;13.01;100.00;98227.34;5129045;27;20202;-67
2022/04/10 04:26:28;;;;;;;5.90;4.43;;;;;;;13.03;100.00;98230.63;5129041;27;20298;-66
2022/04/10 04:28:55;;;;;;;5.10;4.40;;;;;;;13.05;100.00;98219.34;5128790;27;20217;-66
2022/04/10 04:31:24;;;;;;;4.53;4.33;;;;;;;13.06;100.00;98215.03;5129166;27;20201;-67
2022/04/10 04:33:50;;;;;;;4.77;4.37;;;;;;;13.12;100.00;98222.41;5128926;27;20202;-67
2022/04/10 04:36:17;;;;;;;7.27;4.97;;;;;;;13.12;100.00;98225.81;5129097;27;20206;-66
2022/04/10 04:38:44;;;;;;;4.63;4.03;;;;;;;13.17;100.00;98233.28;5126640;27;20221;-66
2022/04/10 04:41:12;;;;;;;5.73;4.60;;;;;;;13.17;100.00;98235.00;5114859;28;20187;-67
2022/04/10 04:43:38;;;;;;;5.20;4.80;;;;;;;13.07;100.00;98227.81;5115059;28;20233;-67
2022/04/10 04:46:05;;;;;;;4.83;4.47;;;;;;;12.97;100.00;98231.00;5114939;28;20253;-67
2022/04/10 04:48:34;;;;;;;7.53;4.90;;;;;;;12.90;100.00;98221.97;5115007;28;20682;-67
2022/04/10 04:51:02;;;;;;;6.13;5.27;;;;;;;12.89;100.00;98223.72;5114758;28;20289;-67
2022/04/10 04:53:29;;;;;;;5.43;4.93;;;;;;;12.89;100.00;98222.91;5110835;28;20211;-66
2022/04/10 04:55:56;;;;;;;5.03;4.63;;;;;;;12.91;100.00;98216.75;5114919;28;20729;-67
2022/04/10 04:58:23;;;;;;;4.80;4.40;;;;;;;12.84;100.00;98215.47;5114881;28;20285;-66
2022/04/10 05:00:50;;;;;;;5.40;4.70;;;;;;;12.94;100.00;98224.28;5114677;28;20304;-65
2022/04/10 05:03:17;;;;;;;5.50;5.10;;;;;;;12.97;100.00;98225.84;5114957;28;20198;-67
2022/04/10 05:05:45;;;;;;;6.10;4.50;;;;;;;13.05;100.00;98223.69;5114722;28;20210;-66
2022/04/10 05:08:12;;;;;;;5.07;4.77;;;;;;;13.14;100.00;98228.31;5114244;28;20244;-66
2022/04/10 05:10:39;;;;;;;7.80;4.20;;;;;;;13.20;100.00;98233.09;5114559;28;20286;-66
2022/04/10 05:13:08;;;;;;;4.90;4.53;;;;;;;13.26;100.00;98232.72;5114547;28;20580;-67
2022/04/10 05:15:35;;;;;;;5.30;4.80;;;;;;;13.35;100.00;98232.16;5114631;28;20739;-66
2022/04/10 05:18:02;;;;;;;4.70;4.40;;;;;;;13.41;100.00;98231.00;5114286;28;20199;-66
2022/04/10 05:20:41;;;;;;;5.67;5.30;;;;;;;13.34;100.00;98235.69;5114222;28;20290;-66
2022/04/10 05:23:09;;;;;;;5.77;5.40;;;;;;;13.39;100.00;98237.97;5114224;28;20652;-68
2022/04/10 05:25:37;;;;;;;6.67;6.10;;;;;;;13.46;100.00;98239.25;5114130;28;20233;-67
2022/04/10 05:28:04;;;;;;;5.63;5.10;;;;;;;13.55;100.00;98249.81;5114149;28;20222;-67
2022/04/10 05:30:31;;;;;;;6.40;4.27;;;;;;;13.61;100.00;98248.63;5114269;28;20198;-67
2022/04/10 05:32:58;;;;;;;4.77;4.43;;;;;;;13.67;100.00;98253.41;5114163;28;20209;-68
2022/04/10 05:35:25;;;;;;;6.07;5.17;;;;;;;13.72;100.00;98246.22;5114244;28;20202;-65
2022/04/10 05:37:52;;;;;;;5.03;4.73;;;;;;;13.72;100.00;98251.38;5113822;28;20305;-65
2022/04/10 05:40:21;;;;;;;4.97;4.67;;;;;;;13.78;100.00;98256.16;5113822;28;20277;-67
2022/04/10 05:42:48;;;;;;;5.27;4.97;;;;;;;13.84;100.00;98249.78;5113942;28;20232;-68
2022/04/10 05:45:15;;;;;;;5.80;4.67;;;;;;;13.89;100.00;98247.78;5113835;28;20667;-65
2022/04/10 05:47:43;;;;;;;7.60;4.90;;;;;;;13.78;100.00;98221.84;5113881;28;20598;-66
2022/04/10 05:50:11;;;;;;;4.60;4.30;;;;;;;13.94;100.00;98236.25;5113682;28;20203;-67
2022/04/10 05:52:39;;;;;;;4.77;4.33;;;;;;;14.03;100.00;98237.41;5112940;28;20202;-66
2022/04/10 05:55:07;;;;;;;4.33;4.03;;;;;;;14.07;100.00;98226.00;5113610;27;20195;-67
2022/04/10 05:57:36;;;;;;;5.77;5.27;;;;;;;14.11;100.00;98222.31;5113647;28;20294;-67
2022/04/10 06:00:05;;;;;;;5.37;4.97;;;;;;;14.17;100.00;98227.09;5113783;28;20202;-67
2022/04/10 06:02:45;;;;;;;3.97;3.67;;;;;;;14.24;100.00;98232.69;5113546;27;20206;-67
2022/04/10 06:05:12;;;;;;;4.77;4.13;;;;;;;14.27;100.00;98235.88;5113387;28;20190;-67
2022/04/10 06:07:39;;;;;;;8.97;4.30;;;;;;;14.33;100.00;98235.53;5113275;28;20290;-67
2022/04/10 06:10:07;;;;;;;6.53;5.27;;;;;;;14.38;100.00;98236.06;5113414;28;20598;-67
2022/04/10 06:12:35;;;;;;;8.30;4.27;;;;;;;14.45;98.82;98227.00;5113150;28;20199;-67
2022/04/10 06:15:03;;;;;;;7.43;5.10;;;;;;;14.53;97.41;98232.50;5113426;28;20245;-67
2022/04/10 06:17:31;;;;;;;6.33;4.30;;;;;;;14.61;98.61;98245.72;5113039;28;20195;-67
2022/04/10 06:19:58;;;;;;;4.37;4.07;;;;;;;14.66;99.65;98241.09;5113259;28;20207;-67
2022/04/10 06:22:24;;;;;;;4.67;3.60;;;;;;;14.73;100.00;98235.53;5113047;28;20298;-67
2022/04/10 06:24:52;;;;;;;4.87;3.90;;;;;;;14.70;97.92;98219.31;5113254;28;20611;-67
2022/04/10 06:27:19;;;;;;;4.07;3.67;;;;;;;14.75;97.76;98218.19;5113153;28;20259;-67
2022/04/10 06:29:47;;;;;;;4.43;4.00;;;;;;;14.63;97.55;98199.22;5113061;28;20222;-68
2022/04/10 06:32:22;;;;;;;6.10;4.20;;;;;;;14.80;96.44;98205.84;5113125;28;20245;-67
2022/04/10 06:34:49;;;;;;;7.50;4.90;;;;;;;14.66;96.65;98194.69;5113076;28;20669;-67
2022/04/10 06:37:16;;;;;;;13.07;6.47;;;;;;;14.73;96.89;98199.44;5112985;28;20585;-67
2022/04/10 06:39:43;;;;;;;9.13;6.27;;;;;;;14.77;96.10;98206.84;5112484;28;20219;-67
2022/04/10 06:42:10;;;;;;;10.73;6.17;;;;;;;14.81;96.28;98204.91;5112884;28;20209;-68
2022/04/10 06:44:38;;;;;;;6.33;5.83;;;;;;;14.82;95.93;98209.97;5112498;28;20210;-67
2022/04/10 06:47:06;;;;;;;10.60;6.37;;;;;;;14.83;96.81;98214.19;5112588;28;20733;-67
2022/04/10 06:49:33;;;;;;;9.30;6.30;;;;;;;14.80;96.53;98205.84;5112413;28;20218;-67
2022/04/10 06:52:01;;;;;;;6.77;6.03;;;;;;;14.90;97.37;98223.16;5112638;28;20226;-67
2022/04/10 06:54:28;;;;;;;7.37;5.23;;;;;;;15.01;96.53;98225.03;5112543;28;20199;-66
2022/04/10 06:56:55;;;;;;;6.23;4.67;;;;;;;15.08;95.48;98226.28;5112428;28;20210;-68
2022/04/10 06:59:21;;;;;;;5.10;4.70;;;;;;;15.17;96.21;98228.25;5112484;28;20306;-67
2022/04/10 07:01:48;;;;;;;5.93;4.50;;;;;;;15.22;94.30;98224.41;5112080;28;20199;-67
2022/04/10 07:04:17;;;;;;;11.50;5.53;;;;;;;15.34;94.64;98224.53;5112506;28;20207;-68
2022/04/10 07:06:46;;;;;;;6.20;5.57;;;;;;;15.37;95.68;98222.56;5112413;28;20230;-68
2022/04/10 07:09:23;;;;;;;8.83;5.27;;;;;;;15.36;94.59;98204.59;5112201;28;20221;-67
2022/04/10 07:11:50;;;;;;;5.33;4.93;;;;;;;15.47;94.31;98218.44;5112289;28;20755;-68
2022/04/10 07:14:17;;;;;;;6.10;5.50;;;;;;;15.64;94.55;98209.53;5112354;28;20203;-67
2022/04/10 07:16:43;;;;;;;5.07;4.77;;;;;;;15.76;93.11;98198.38;5112130;28;20721;-68
2022/04/10 07:19:10;;;;;;;10.70;4.73;;;;;;;15.91;92.72;98206.78;5112121;28;20637;-67
2022/04/10 07:24:23;;;;;;;6.03;4.43;;;;;;;16.18;90.14;98215.16;5112281;28;20201;-67
2022/04/10 07:26:52;;;;;;;8.80;4.70;;;;;;;16.34;90.96;98220.88;5112099;28;20582;-68
2022/04/10 07:29:19;;;;;;;8.23;5.40;;;;;;;16.52;90.69;98222.13;5112184;28;20320;-68
2022/04/10 07:31:46;;;;;;;5.57;4.93;;;;;;;16.64;91.10;98213.50;5111964;28;20210;-67
2022/04/10 07:34:13;;;;;;;5.13;4.70;;;;;;;16.93;91.27;98219.09;5112279;28;20317;-68
2022/04/10 07:36:41;;;;;;;5.37;4.97;;;;;;;17.22;92.07;98225.50;5112134;28;20300;-67
2022/04/10 07:39:08;;;;;;;5.30;4.40;;;;;;;17.51;90.01;98214.72;5111951;28;20224;-66
2022/04/10 07:41:35;;;;;;;6.03;5.50;;;;;;;17.76;85.55;98230.88;5112139;28;20579;-66
2022/04/10 07:44:02;;;;;;;6.33;4.20;;;;;;;17.84;83.44;98233.66;5111934;28;20207;-67
2022/04/10 07:49:13;;;;;;;5.37;4.70;;;;;;;18.06;82.19;98224.22;5111954;28;20229;-67
2022/04/10 07:51:42;;;;;;;4.93;4.27;;;;;;;18.15;80.16;98231.28;5112083;28;20666;-67
2022/04/10 07:54:09;;;;;;;5.33;4.67;;;;;;;18.25;79.90;98227.00;5111707;28;20287;-67
2022/04/10 07:56:36;;;;;;;5.03;4.53;;;;;;;18.28;77.30;98229.34;5111786;28;20640;-67
2022/04/10 07:59:03;;;;;;;4.30;3.53;;;;;;;18.40;79.32;98237.91;5111828;28;20632;-66
2022/04/10 08:01:29;;;;;;;7.20;4.07;;;;;;;18.41;77.79;98237.81;5111807;28;20286;-66
2022/04/10 08:03:56;;;;;;;5.87;4.17;;;;;;;18.36;78.77;98239.91;5111750;28;20194;-66
2022/04/10 08:06:23;;;;;;;4.40;3.97;;;;;;;18.42;77.75;98241.22;5111921;28;20749;-67
2022/04/10 08:08:51;;;;;;;4.77;4.37;;;;;;;18.42;78.33;98239.44;5111619;28;20246;-67
2022/04/10 08:11:18;;;;;;;4.40;4.00;;;;;;;18.47;77.09;98247.69;5111914;28;20645;-66
2022/04/10 08:13:45;;;;;;;5.43;4.00;;;;;;;18.40;76.99;98262.09;5111834;28;20302;-66
2022/04/10 08:16:14;;;;;;;4.07;3.80;;;;;;;18.18;77.36;98262.16;5115333;28;20689;-68
2022/04/10 08:18:41;;;;;;;6.23;4.27;;;;;;;18.13;78.81;98290.19;5115333;28;20205;-66
2022/04/10 08:21:08;;;;;;;4.50;3.67;;;;;;;17.89;79.53;98297.31;5115414;28;20286;-66
2022/04/10 08:23:35;;;;;;;3.57;3.37;;;;;;;17.75;79.79;98327.72;5115730;28;20206;-66
2022/04/10 08:26:04;;;;;;;4.43;3.67;;;;;;;17.50;79.68;98316.69;5115528;28;20202;-65
2022/04/10 08:28:31;;;;;;;4.17;3.80;;;;;;;17.32;81.06;98293.81;5115550;28;20202;-67
2022/04/10 08:30:58;;;;;;;3.63;3.43;;;;;;;17.28;81.06;98281.22;5115362;28;20202;-67
2022/04/10 08:33:25;;;;;;;6.97;5.30;;;;;;;17.30;84.88;98285.34;5115426;28;20585;-67
2022/04/10 08:35:52;;;;;;;7.00;5.00;;;;;;;17.26;88.70;98278.72;5115035;28;20290;-67
2022/04/10 08:38:22;;;;;;;5.17;4.67;;;;;;;17.21;90.62;98264.50;5114602;28;20305;-68
2022/04/10 08:40:50;;;;;;;4.60;4.30;;;;;;;17.14;92.88;98279.66;5114532;28;20195;-67
2022/04/10 08:43:21;;;;;;;4.17;3.93;;;;;;;17.17;93.43;98257.88;5114724;28;20681;-67
2022/04/10 08:45:48;;;;;;;6.93;4.70;;;;;;;17.23;94.14;98249.66;5114265;28;20662;-65
2022/04/10 08:48:15;;;;;;;4.93;4.50;;;;;;;17.25;94.15;98255.56;5114126;28;20203;-62
2022/04/10 08:50:43;;;;;;;8.00;4.40;;;;;;;17.33;96.66;98255.78;5114389;28;20735;-62
2022/04/10 08:53:11;;;;;;;4.90;4.50;;;;;;;17.43;94.31;98245.56;5113854;28;20319;-62
2022/04/10 08:55:38;;;;;;;4.23;3.83;;;;;;;17.51;94.33;98251.00;5114106;28;20569;-62
2022/04/10 08:58:05;;;;;;;7.43;4.57;;;;;;;17.48;94.58;98231.28;5113982;28;20201;-63
2022/04/10 09:00:33;;;;;;;8.60;5.20;;;;;;;17.40;93.76;98243.19;5113726;28;20199;-63
2022/04/10 09:03:00;;;;;;;9.70;5.10;;;;;;;17.42;93.54;98247.31;5113891;28;20202;-62
2022/04/10 09:05:27;;;;;;;5.90;5.13;;;;;;;17.36;97.17;98234.84;5113874;27;20304;-63
2022/04/10 09:08:11;;;;;;;5.50;5.13;;;;;;;17.39;99.27;98224.22;5113876;28;20230;-63
2022/04/10 09:10:54;;;;;;;5.03;4.37;;;;;;;17.37;99.08;98223.53;5113669;28;20233;-63
2022/04/10 09:13:27;;;;;;;11.57;5.33;;;;;;;17.34;100.00;98223.78;5113126;28;20205;-63
2022/04/10 09:16:01;;;;;;;5.97;5.47;;;;;;;17.27;100.00;98222.59;5113111;28;20289;-63
2022/04/10 09:18:28;;;;;;;12.07;5.57;;;;;;;17.26;100.00;98216.56;5113502;28;20201;-63
2022/04/10 09:21:08;;;;;;;7.33;6.67;;;;;;;17.25;100.00;98224.47;5113637;28;20285;-63
2022/04/10 09:23:35;;;;;;;6.93;6.27;;;;;;;17.22;100.00;98228.09;5113120;28;20658;-63
2022/04/10 09:26:02;;;;;;;9.03;7.07;;;;;;;17.16;100.00;98231.16;5113397;28;20682;-63
2022/04/10 09:28:43;;;;;;;8.20;7.47;;;;;;;17.29;100.00;98231.06;5113540;28;20196;-63
2022/04/10 09:31:34;;;;;;;10.60;7.37;;;;;;;17.48;100.00;98220.94;5113275;28;20201;-63
2022/04/10 09:34:03;;;;;;;8.00;6.87;;;;;;;17.66;100.00;98214.38;5113221;28;20310;-63
2022/04/10 09:36:35;;;;;;;9.60;8.63;;;;;;;17.86;100.00;98214.59;5113214;28;20277;-63
2022/04/10 09:39:03;;;;;;;14.03;11.70;;;;;;;17.93;98.30;98221.78;5112986;28;20275;-63
2022/04/10 09:41:30;;;;;;;17.67;10.10;;;;;;;18.03;96.81;98233.03;5113086;28;20305;-63
2022/04/10 09:44:02;;;;;;;7.97;7.37;;;;;;;18.05;96.99;98215.63;5113285;28;20281;-63
2022/04/10 09:46:31;;;;;;;8.00;7.40;;;;;;;18.23;96.57;98221.09;5112852;28;20247;-63
2022/04/10 09:49:04;;;;;;;9.40;8.03;;;;;;;18.47;93.88;98216.53;5113176;28;20725;-63
2022/04/10 09:51:31;;;;;;;11.80;7.37;;;;;;;18.69;91.25;98226.84;5112766;28;20198;-63
2022/04/10 09:54:05;;;;;;;8.37;7.33;;;;;;;18.79;89.37;98232.94;5112949;28;20199;-63
2022/04/10 09:56:32;;;;;;;6.43;5.93;;;;;;;19.00;91.21;98204.38;5112744;28;20581;-63
2022/04/10 09:59:01;;;;;;;6.53;6.00;;;;;;;19.33;87.26;98229.28;5112877;28;20658;-64
2022/04/10 10:01:28;;;;;;;6.23;5.73;;;;;;;19.53;83.05;98232.84;5112944;28;20195;-64
2022/04/10 10:03:57;;;;;;;6.23;5.67;;;;;;;19.65;78.24;98221.38;5112933;28;20209;-64
2022/04/10 10:06:26;;;;;;;5.73;5.23;;;;;;;19.82;77.69;98213.78;5112673;28;20209;-63
2022/04/10 10:08:54;;;;;;;5.47;4.83;;;;;;;20.00;73.27;98218.38;5111558;28;20252;-64
2022/04/10 10:11:22;;;;;;;6.37;5.77;;;;;;;19.98;76.95;98208.06;5112346;28;20229;-64
2022/04/10 10:13:51;;;;;;;5.13;4.63;;;;;;;20.12;73.12;98201.66;5110455;28;21032;-68
2022/04/10 10:16:19;;;;;;;4.13;3.80;;;;;;;20.33;67.94;98197.19;5110726;28;20670;-68
2022/04/10 10:18:47;;;;;;;6.70;5.03;;;;;;;20.34;71.94;98191.03;5110888;28;20578;-67
2022/04/10 10:21:16;;;;;;;5.77;5.37;;;;;;;20.35;73.10;98183.09;5111407;28;20226;-68
2022/04/10 10:23:50;;;;;;;4.50;4.07;;;;;;;20.46;71.82;98174.31;5111186;28;20745;-68
2022/04/10 10:26:43;;;;;;;4.27;3.87;;;;;;;20.65;69.11;98184.72;5112057;28;20230;-68
2022/04/10 10:29:27;;;;;;;205.23;92.00;;;;;;;20.71;72.17;98176.34;5111170;28;20203;-67
2022/04/10 10:32:04;;;;;;;46.90;22.40;;;;;;;20.94;71.35;98177.66;5109107;28;20302;-67
2022/04/10 10:34:32;;;;;;;14.27;7.47;;;;;;;20.95;68.41;98168.91;5109711;28;20202;-67
2022/04/10 10:37:03;;;;;;;18.20;9.73;;;;;;;21.12;70.37;98151.75;5110282;28;20291;-67
2022/04/10 10:39:33;;;;;;;24.67;14.80;;;;;;;21.08;67.83;98141.72;5111074;28;20214;-67
2022/04/10 10:42:11;;;;;;;164.77;85.43;;;;;;;21.27;67.84;98162.53;5111259;28;20216;-67
2022/04/10 10:44:48;;;;;;;55.53;26.27;;;;;;;21.33;67.99;98157.56;5111170;28;20210;-67
2022/04/10 10:47:25;;;;;;;12.53;8.60;;;;;;;21.23;64.23;98156.75;5111010;28;20853;-67
2022/04/10 10:49:55;;;;;;;4.10;3.17;;;;;;;21.35;65.94;98167.84;5111499;28;20207;-67
2022/04/10 10:52:23;;;;;;;3.50;3.30;;;;;;;21.41;64.59;98169.88;5110528;28;20288;-67
2022/04/10 10:54:56;;;;;;;3.20;3.00;;;;;;;21.43;62.55;98157.50;5110525;28;20278;-67
2022/04/10 10:57:28;;;;;;;5.07;2.80;;;;;;;21.43;60.98;98154.91;5110735;28;20192;-67
2022/04/10 11:00:12;;;;;;;4.63;2.60;;;;;;;21.36;61.05;98149.44;5110822;28;20726;-67
2022/04/10 11:02:40;;;;;;;3.83;3.40;;;;;;;21.55;63.55;98155.56;5111133;28;20777;-67
2022/04/10 11:05:08;;;;;;;3.50;3.20;;;;;;;21.65;60.11;98146.69;5110314;28;20672;-67
2022/04/10 11:07:39;;;;;;;3.33;2.37;;;;;;;21.45;56.73;98138.13;5110910;28;20273;-62
2022/04/10 11:10:10;;;;;;;4.43;3.50;;;;;;;21.32;59.75;98129.88;5111583;28;20215;-62
2022/04/10 11:12:47;;;;;;;3.37;3.17;;;;;;;21.24;60.54;98139.34;5111589;28;20201;-63
2022/04/10 11:15:18;;;;;;;3.40;3.10;;;;;;;21.33;58.17;98130.66;5109305;28;20199;-63
2022/04/10 11:17:46;;;;;;;3.53;3.33;;;;;;;21.17;59.84;98135.66;5110505;28;20690;-63
2022/04/10 11:20:14;;;;;;;3.13;2.83;;;;;;;21.19;59.08;98133.75;5110983;28;20282;-62
2022/04/10 11:22:47;;;;;;;2.90;2.70;;;;;;;21.03;61.12;98123.91;5111355;28;20205;-62
2022/04/10 11:25:18;;;;;;;9.83;3.73;;;;;;;21.15;58.68;98137.59;5108304;28;20255;-63
2022/04/10 11:27:55;;;;;;;10.47;6.67;;;;;;;20.87;57.23;98119.28;5109727;28;20195;-62
2022/04/10 11:30:25;;;;;;;6.50;5.33;;;;;;;20.71;55.63;98129.47;5111093;28;20651;-63
2022/04/10 11:32:53;;;;;;;5.37;4.90;;;;;;;20.40;56.58;98130.63;5111498;28;20197;-62
2022/04/10 11:35:23;;;;;;;5.20;4.90;;;;;;;20.11;55.40;98125.38;5108899;28;20682;-63
2022/04/10 11:37:52;;;;;;;11.07;7.10;;;;;;;19.75;55.08;98133.84;5110329;28;20230;-62
2022/04/10 11:40:22;;;;;;;12.43;9.23;;;;;;;19.47;55.31;98138.03;5111127;28;20201;-62
2022/04/10 11:42:51;;;;;;;5.10;4.80;;;;;;;19.21;55.85;98144.59;5111389;28;20225;-62
2022/04/10 11:45:19;;;;;;;6.23;5.77;;;;;;;18.92;56.79;98128.88;5111218;28;20210;-63
2022/04/10 11:47:46;;;;;;;7.93;3.90;;;;;;;18.72;57.18;98135.75;5109932;28;20198;-62
2022/04/10 11:50:13;;;;;;;3.60;3.23;;;;;;;18.50;56.41;98143.66;5112461;28;20680;-63
2022/04/10 11:55:32;;;;;;;4.30;4.00;;;;;;;18.29;57.33;98124.59;5096208;28;20206;-63